Chesapeake — WDD3041 — position and weather

sailwx.info

Track history (hours):
 
Tides and Currents Weather Stations Pressure Air Temp Water Temp Dewpoint Dewpoint Depression Visibility Wind Speed Wind Dir Waves Ship Positions

Chesapeake

Owner: Vane Line Bunkering, Philadelphia, PA. More information available from US FCC via Universal Licensing System and Coast Guard Vessel Documentation Center.

Last reported at 2017-Jul-27 07:23 UTC. Time now 2017-Jul-27 14:57 UTC.
Position N 39°34' W 074°05'.

Length 34 m.

Type: Tug. MMSI: 367123040.

Date/timePositionNaut miles runAvg speedWind from/ knotsBaromVisibWave heightAir tempDewpointWater temp
2017-Jul-27 07:23N 39°34' W 074°05'410.2
2017-Jul-27 07:00N 39°38' W 074°03'510.2
2017-Jul-27 06:31N 39°42' W 073°60'510.0
2017-Jul-27 06:00N 39°47' W 073°57'510.2
2017-Jul-27 05:30N 39°52' W 073°56'3710.0
2017-Jul-27 01:45N 40°29' W 073°55'2 9.1
2017-Jul-27 01:30N 40°30' W 073°57'4 8.2
2017-Jul-27 01:00N 40°33' W 074°02'4 8.7
2017-Jul-27 00:30N 40°37' W 074°03'4 8.5
2017-Jul-27 00:01N 40°41' W 074°02'510.2
2017-Jul-26 23:30N 40°46' W 074°01'611.1
2017-Jul-26 23:00N 40°51' W 073°57'4 7.7
2017-Jul-26 22:30N 40°54' W 073°55'0 0.1
2017-Jul-26 22:00N 40°54' W 073°55'1 0.0
2017-Jul-25 05:49N 40°56' W 073°55'3 8.0
2017-Jul-25 05:30N 40°53' W 073°56'4 8.1
2017-Jul-25 05:00N 40°50' W 073°58'5 9.0
2017-Jul-25 04:30N 40°46' W 074°01'5 9.1
2017-Jul-25 04:00N 40°41' W 074°02'4 8.3
2017-Jul-25 03:30N 40°37' W 074°03'3 5.3
2017-Jul-25 03:01N 40°35' W 074°02'1 2.6
2017-Jul-25 02:30N 40°34' W 074°02'3 6.4
2017-Jul-25 02:00N 40°31' W 073°59'3 6.8
2017-Jul-25 01:29N 40°29' W 073°55'37 5.8
2017-Jul-24 19:06N 39°52' W 073°56'1 5.2
2017-Jul-24 18:59N 39°52' W 073°57'3 5.3
2017-Jul-24 18:31N 39°49' W 073°58'3 5.3
2017-Jul-24 18:00N 39°46' W 073°58'3 5.5
2017-Jul-24 17:31N 39°44' W 073°59'3 5.7
2017-Jul-24 17:01N 39°41' W 073°60'3 6.0
2017-Jul-24 16:31N 39°38' W 074°02'3 6.3
2017-Jul-24 16:01N 39°36' W 074°04'35 6.0
2017-Jul-24 10:11N 39°07' W 074°30'1 5.8
2017-Jul-24 09:59N 39°06' W 074°31'3 5.9
2017-Jul-24 09:30N 39°04' W 074°33'11 5.9
2017-Jul-24 07:35N 38°56' W 074°44'1 6.3
2017-Jul-24 07:29N 38°56' W 074°45'6 6.3
2017-Jul-24 06:34N 38°51' W 074°49'1 6.6
2017-Jul-24 06:23N 38°50' W 074°50'3 7.4
2017-Jul-24 05:56N 38°49' W 074°54'4 7.6
2017-Jul-24 05:26N 38°48' W 074°59'22 6.9
2017-Jul-24 02:16N 39°07' W 075°13'2 6.5
2017-Jul-24 01:59N 39°08' W 075°14'3 6.1
2017-Jul-24 01:30N 39°11' W 075°16'3 5.5
2017-Jul-24 01:00N 39°13' W 075°18'3 5.4
2017-Jul-24 00:30N 39°16' W 075°20'3 5.5
2017-Jul-24 00:00N 39°18' W 075°22'3 6.1
2017-Jul-23 23:30N 39°20' W 075°25'3 6.9
2017-Jul-23 23:00N 39°22' W 075°28'4 7.9
2017-Jul-23 22:30N 39°25' W 075°31'4 8.7
2017-Jul-23 22:01N 39°29' W 075°34'5 9.5
2017-Jul-23 21:30N 39°34' W 075°33'4 8.9
2017-Jul-23 21:00N 39°38' W 075°34'5 9.6
2017-Jul-23 20:30N 39°42' W 075°31'5 9.4
2017-Jul-23 20:00N 39°47' W 075°28'4 9.0
2017-Jul-23 19:30N 39°49' W 075°23'4 8.1
2017-Jul-23 19:00N 39°51' W 075°18'2 3.9
2017-Jul-23 18:30N 39°51' W 075°16'3 6.4
2017-Jul-23 18:00N 39°52' W 075°12'1 2.2
2017-Jul-23 17:29N 39°54' W 075°12'0 0.1
2017-Jul-23 16:58N 39°54' W 075°12'0 0.0
2017-Jul-23 16:28N 39°54' W 075°12'0 0.0
2017-Jul-23 15:58N 39°54' W 075°12'0 0.0
2017-Jul-23 15:28N 39°54' W 075°12'0 0.0
2017-Jul-23 14:55N 39°54' W 075°12'0 0.0
2017-Jul-23 14:28N 39°54' W 075°12'0 0.0
2017-Jul-23 13:58N 39°54' W 075°12'0 0.0
2017-Jul-23 13:28N 39°54' W 075°12'0 0.0
2017-Jul-23 12:58N 39°54' W 075°12'0 0.0
2017-Jul-23 12:28N 39°54' W 075°12'0 0.0
2017-Jul-23 11:58N 39°54' W 075°12'0 0.0
2017-Jul-23 11:28N 39°54' W 075°12'0 0.0
2017-Jul-23 10:58N 39°54' W 075°12'0 0.0
2017-Jul-23 10:28N 39°54' W 075°12'0 0.0
2017-Jul-23 09:58N 39°54' W 075°12'0 0.0
2017-Jul-23 09:28N 39°54' W 075°12'0 0.0
2017-Jul-23 08:58N 39°54' W 075°12'0 0.0
2017-Jul-23 08:28N 39°54' W 075°12'0 0.0
2017-Jul-23 07:58N 39°54' W 075°12'0 0.0
2017-Jul-23 07:28N 39°54' W 075°12'0 0.0
2017-Jul-23 06:52N 39°54' W 075°12'0 0.0
2017-Jul-23 06:28N 39°54' W 075°12'0 0.0
2017-Jul-23 05:58N 39°54' W 075°12'0 0.0
2017-Jul-23 05:28N 39°54' W 075°12'0 0.0
2017-Jul-23 04:58N 39°54' W 075°12'0 0.0
2017-Jul-23 04:28N 39°54' W 075°12'0 0.0
2017-Jul-23 03:58N 39°54' W 075°12'0 0.0
2017-Jul-23 03:25N 39°54' W 075°12'0 0.0
2017-Jul-23 02:58N 39°54' W 075°12'0 0.0
2017-Jul-23 02:25N 39°54' W 075°12'0 0.0
2017-Jul-23 01:58N 39°54' W 075°12'0 0.0
2017-Jul-23 01:28N 39°54' W 075°12'0 0.0
2017-Jul-23 00:58N 39°54' W 075°12'0 0.0
2017-Jul-23 00:28N 39°54' W 075°12'0 0.0
2017-Jul-22 23:58N 39°54' W 075°12'0 0.0
2017-Jul-22 23:25N 39°54' W 075°12'0 0.0
2017-Jul-22 22:53N 39°54' W 075°12'0 0.0
2017-Jul-22 22:30N 39°54' W 075°12'0 0.0
2017-Jul-22 22:00N 39°54' W 075°12'0 0.0
2017-Jul-22 21:30N 39°54' W 075°12'0 0.0
2017-Jul-22 21:00N 39°54' W 075°12'0 0.0
2017-Jul-22 20:30N 39°54' W 075°12'0 0.0
2017-Jul-22 19:57N 39°54' W 075°12'0 0.0
2017-Jul-22 19:30N 39°54' W 075°12'0 0.0
2017-Jul-22 19:00N 39°54' W 075°12'0 0.1
2017-Jul-22 18:30N 39°54' W 075°12'4 6.9
2017-Jul-22 17:59N 39°51' W 075°15'0 1.0
2017-Jul-22 17:29N 39°51' W 075°16'1 2.5
2017-Jul-22 17:00N 39°51' W 075°15'2 3.8
2017-Jul-22 16:28N 39°52' W 075°12'0 0.2
2017-Jul-22 16:01N 39°52' W 075°12'0 0.0
2017-Jul-22 15:28N 39°52' W 075°12'0 0.0
2017-Jul-22 14:58N 39°52' W 075°12'0 0.0
2017-Jul-22 13:58N 39°52' W 075°12'0 0.1
2017-Jul-22 13:31N 39°52' W 075°12'0 0.2
2017-Jul-22 13:01N 39°52' W 075°12'0 0.0
2017-Jul-22 12:30N 39°52' W 075°12'0 0.0
2017-Jul-22 12:01N 39°52' W 075°12'0 0.0
2017-Jul-22 11:31N 39°52' W 075°12'0 0.0
2017-Jul-22 10:58N 39°52' W 075°12'0 0.0
2017-Jul-22 10:30N 39°52' W 075°12'0 0.0
2017-Jul-22 09:58N 39°52' W 075°12'0 0.0
2017-Jul-22 09:30N 39°52' W 075°12'0 0.0
2017-Jul-22 09:01N 39°52' W 075°12'0 0.0
2017-Jul-22 08:30N 39°52' W 075°12'0 0.0
2017-Jul-22 08:01N 39°52' W 075°12'0 0.0
2017-Jul-22 07:28N 39°52' W 075°12'0 0.1
2017-Jul-22 06:58N 39°52' W 075°12'0 0.1
2017-Jul-22 06:28N 39°52' W 075°12'0 0.1
2017-Jul-22 06:01N 39°52' W 075°12'0 0.1
2017-Jul-22 05:30N 39°52' W 075°12'0 0.0
2017-Jul-22 04:58N 39°52' W 075°12'0 0.0
2017-Jul-22 04:28N 39°52' W 075°12'0 0.0
2017-Jul-22 03:58N 39°52' W 075°12'0 0.0
2017-Jul-22 03:28N 39°52' W 075°12'0 0.0
2017-Jul-22 03:00N 39°52' W 075°12'0 0.0
2017-Jul-22 02:30N 39°52' W 075°12'0 0.0
2017-Jul-22 02:00N 39°52' W 075°12'0 0.0
2017-Jul-22 01:30N 39°52' W 075°12'0 0.0
2017-Jul-22 01:00N 39°52' W 075°12'0 0.0
2017-Jul-22 00:31N 39°52' W 075°12'0 0.1
2017-Jul-21 23:58N 39°52' W 075°12'0 0.1
2017-Jul-21 23:28N 39°52' W 075°12'0 0.2
2017-Jul-21 22:58N 39°52' W 075°12'0 0.1
2017-Jul-21 22:28N 39°52' W 075°12'0 0.0
2017-Jul-21 21:58N 39°52' W 075°12'0 0.1
2017-Jul-21 21:28N 39°52' W 075°12'0 0.0
2017-Jul-21 20:58N 39°52' W 075°12'0 0.0
2017-Jul-21 20:31N 39°52' W 075°12'0 0.1
2017-Jul-21 19:58N 39°52' W 075°12'0 0.0
2017-Jul-21 19:31N 39°52' W 075°12'0 0.0
2017-Jul-21 18:58N 39°52' W 075°12'0 0.1
2017-Jul-21 18:28N 39°52' W 075°12'0 0.2
2017-Jul-21 17:58N 39°52' W 075°12'0 0.0
2017-Jul-21 17:28N 39°52' W 075°12'0 0.1
2017-Jul-21 16:55N 39°52' W 075°12'0 0.0
2017-Jul-21 16:28N 39°52' W 075°12'0 0.0
2017-Jul-21 15:58N 39°52' W 075°12'0 0.0
2017-Jul-21 15:28N 39°52' W 075°12'0 0.0
2017-Jul-21 14:58N 39°52' W 075°12'0 0.0
2017-Jul-21 14:28N 39°52' W 075°12'0 0.0
2017-Jul-21 13:58N 39°52' W 075°12'0 0.0
2017-Jul-21 13:28N 39°52' W 075°12'0 0.0
2017-Jul-21 12:58N 39°52' W 075°12'0 0.1
2017-Jul-21 12:28N 39°52' W 075°12'0 0.1
2017-Jul-21 11:58N 39°52' W 075°12'0 0.1
2017-Jul-21 11:30N 39°52' W 075°12'0 0.0
2017-Jul-21 11:01N 39°52' W 075°12'0 0.0
2017-Jul-21 10:30N 39°52' W 075°12'0 0.1
2017-Jul-21 10:00N 39°52' W 075°12'0 0.0
2017-Jul-21 09:30N 39°52' W 075°12'0 0.0
2017-Jul-21 09:00N 39°52' W 075°12'0 0.0
2017-Jul-21 08:28N 39°52' W 075°12'0 0.0
2017-Jul-21 08:00N 39°52' W 075°12'0 0.1
2017-Jul-21 07:30N 39°52' W 075°12'0 0.0
2017-Jul-21 07:00N 39°52' W 075°12'0 0.0
2017-Jul-21 06:28N 39°52' W 075°12'0 0.0
2017-Jul-21 06:01N 39°52' W 075°12'0 0.1
2017-Jul-21 05:30N 39°52' W 075°12'0 0.1
2017-Jul-21 05:00N 39°52' W 075°12'0 0.1
2017-Jul-21 04:30N 39°52' W 075°12'0 0.0
2017-Jul-21 03:58N 39°52' W 075°12'0 0.0
2017-Jul-21 03:25N 39°52' W 075°12'0 0.0
2017-Jul-21 02:58N 39°52' W 075°12'0 0.0
2017-Jul-21 02:30N 39°52' W 075°12'0 0.0
2017-Jul-21 01:58N 39°52' W 075°12'0 0.0
2017-Jul-21 01:28N 39°52' W 075°12'0 0.0
2017-Jul-21 00:58N 39°52' W 075°12'0 0.0
2017-Jul-21 00:28N 39°52' W 075°12'0 0.0
2017-Jul-21 00:01N 39°52' W 075°12'0 0.0
2017-Jul-20 23:28N 39°52' W 075°12'0 0.0
2017-Jul-20 22:58N 39°52' W 075°12'0 0.0
2017-Jul-20 22:31N 39°52' W 075°12'0 0.0
2017-Jul-20 21:58N 39°52' W 075°12'0 0.0
2017-Jul-20 21:28N 39°52' W 075°12'0 0.1
2017-Jul-20 20:58N 39°52' W 075°12'0 0.1
2017-Jul-20 20:28N 39°52' W 075°12'1 3.0
2017-Jul-20 20:00N 39°54' W 075°12'0 0.5
2017-Jul-20 19:29N 39°54' W 075°12'0 0.0
2017-Jul-20 18:59N 39°54' W 075°12'0 0.0
2017-Jul-20 18:29N 39°54' W 075°12'0 0.0
2017-Jul-20 17:59N 39°54' W 075°12'0 0.2
2017-Jul-20 17:29N 39°54' W 075°12'0 0.2
2017-Jul-20 16:58N 39°54' W 075°12'0 0.0
2017-Jul-20 16:28N 39°54' W 075°12'1 1.4
2017-Jul-20 15:58N 39°54' W 075°11'1 1.4
2017-Jul-20 15:29N 39°54' W 075°12'0 0.0
2017-Jul-20 14:59N 39°54' W 075°12'0 0.0
2017-Jul-20 13:59N 39°54' W 075°12'0 0.0
2017-Jul-20 13:26N 39°54' W 075°12'0 0.0
2017-Jul-20 12:59N 39°54' W 075°12'0 0.0
2017-Jul-20 12:29N 39°54' W 075°12'0 0.0
2017-Jul-20 11:59N 39°54' W 075°12'0 0.0
2017-Jul-20 11:26N 39°54' W 075°12'0 0.0
2017-Jul-20 10:56N 39°54' W 075°12'0 0.0
2017-Jul-20 10:29N 39°54' W 075°12'0 0.0
2017-Jul-20 09:59N 39°54' W 075°12'0 0.0
2017-Jul-20 09:29N 39°54' W 075°12'0 0.0
2017-Jul-20 08:59N 39°54' W 075°12'0 0.0
2017-Jul-20 08:29N 39°54' W 075°12'0 0.0
2017-Jul-20 07:56N 39°54' W 075°12'0 0.0
2017-Jul-20 07:29N 39°54' W 075°12'0 0.0
2017-Jul-20 06:59N 39°54' W 075°12'0 0.0
2017-Jul-20 06:29N 39°54' W 075°12'0 0.0
2017-Jul-20 05:59N 39°54' W 075°12'0 0.0
2017-Jul-20 05:29N 39°54' W 075°12'0 0.0
2017-Jul-20 04:59N 39°54' W 075°12'0 0.0
2017-Jul-20 04:29N 39°54' W 075°12'0 0.0
2017-Jul-20 03:59N 39°54' W 075°12'0 0.0
2017-Jul-20 03:29N 39°54' W 075°12'0 0.0
2017-Jul-20 02:59N 39°54' W 075°12'0 0.0
2017-Jul-20 02:29N 39°54' W 075°12'0 0.0
2017-Jul-20 01:59N 39°54' W 075°12'0 0.0
2017-Jul-20 01:30N 39°54' W 075°12'0 0.0
2017-Jul-20 01:00N 39°54' W 075°12'0 0.0
2017-Jul-20 00:30N 39°54' W 075°12'0 0.0
2017-Jul-20 00:00N 39°54' W 075°12'0 0.0
2017-Jul-19 23:31N 39°54' W 075°12'0 0.0
2017-Jul-19 23:01N 39°54' W 075°12'0 0.0
2017-Jul-19 22:31N 39°54' W 075°12'0 0.0
2017-Jul-19 22:01N 39°54' W 075°12'0 0.0
2017-Jul-19 21:31N 39°54' W 075°12'0 0.0
2017-Jul-19 21:01N 39°54' W 075°12'0 0.0
2017-Jul-19 20:30N 39°54' W 075°12'0 0.0
2017-Jul-19 20:00N 39°54' W 075°12'0 0.0
2017-Jul-19 19:31N 39°54' W 075°12'0 0.0
2017-Jul-19 19:00N 39°54' W 075°12'0 0.0
2017-Jul-19 18:31N 39°54' W 075°12'0 0.0
2017-Jul-19 18:01N 39°54' W 075°12'0 0.0
2017-Jul-19 17:31N 39°54' W 075°12'0 0.0
2017-Jul-19 17:01N 39°54' W 075°12'0 0.0
2017-Jul-19 16:30N 39°54' W 075°12'0 0.0
2017-Jul-19 16:01N 39°54' W 075°12'0 0.0
2017-Jul-19 15:30N 39°54' W 075°12'0 0.0
2017-Jul-19 15:01N 39°54' W 075°12'0 0.0
2017-Jul-19 14:31N 39°54' W 075°12'0 0.0
2017-Jul-19 14:01N 39°54' W 075°12'0 0.0
2017-Jul-19 13:31N 39°54' W 075°12'0 0.0
2017-Jul-19 13:00N 39°54' W 075°12'0 0.0
2017-Jul-19 12:30N 39°54' W 075°12'0 0.0
2017-Jul-19 12:00N 39°54' W 075°12'0 0.0
2017-Jul-19 11:31N 39°54' W 075°12'0 0.0
2017-Jul-19 11:00N 39°54' W 075°12'0 0.0
2017-Jul-19 10:31N 39°54' W 075°12'0 0.0
2017-Jul-19 10:00N 39°54' W 075°12'0 0.0
2017-Jul-19 09:30N 39°54' W 075°12'0 0.0
2017-Jul-19 09:00N 39°54' W 075°12'0 0.0
2017-Jul-19 08:30N 39°54' W 075°12'0 0.0
2017-Jul-19 08:00N 39°54' W 075°12'0 0.0
2017-Jul-19 07:30N 39°54' W 075°12'0 0.0
2017-Jul-19 07:00N 39°54' W 075°12'0 0.0
2017-Jul-19 06:30N 39°54' W 075°12'0 0.0
2017-Jul-19 06:01N 39°54' W 075°12'0 0.0
2017-Jul-19 05:31N 39°54' W 075°12'0 0.0
2017-Jul-19 05:00N 39°54' W 075°12'0 0.0
2017-Jul-19 04:30N 39°54' W 075°12'0 0.0
2017-Jul-19 04:00N 39°54' W 075°12'0 0.0
2017-Jul-19 03:30N 39°54' W 075°12'0 0.0
2017-Jul-19 03:00N 39°54' W 075°12'0 0.0
2017-Jul-19 02:30N 39°54' W 075°12'0 0.0
2017-Jul-19 02:00N 39°54' W 075°12'0 0.0
2017-Jul-19 01:31N 39°54' W 075°12'0 0.0
2017-Jul-19 01:00N 39°54' W 075°12'0 0.0
2017-Jul-19 00:30N 39°54' W 075°12'0 0.0
2017-Jul-19 00:01N 39°54' W 075°12'0 0.0
2017-Jul-18 23:31N 39°54' W 075°12'0 0.0
2017-Jul-18 23:01N 39°54' W 075°12'0 0.0
2017-Jul-18 22:31N 39°54' W 075°12'0 0.0
2017-Jul-18 22:01N 39°54' W 075°12'0 0.0
2017-Jul-18 21:31N 39°54' W 075°12'0 0.0
2017-Jul-18 21:01N 39°54' W 075°12'0 0.0
2017-Jul-18 20:31N 39°54' W 075°12'0 0.0
2017-Jul-18 20:00N 39°54' W 075°12'0 0.0
2017-Jul-18 19:30N 39°54' W 075°12'3 6.5
2017-Jul-18 19:00N 39°51' W 075°15'1 1.7
2017-Jul-18 18:30N 39°52' W 075°14'2 4.9
2017-Jul-18 18:01N 39°54' W 075°12'0 0.0
2017-Jul-18 17:30N 39°54' W 075°12'0 0.0
2017-Jul-18 17:00N 39°54' W 075°12'0 0.0
2017-Jul-18 16:31N 39°54' W 075°12'0 0.0
2017-Jul-18 16:00N 39°54' W 075°12'0 0.0
2017-Jul-18 15:30N 39°54' W 075°12'0 0.0
2017-Jul-18 15:00N 39°54' W 075°12'0 0.0
2017-Jul-18 14:01N 39°54' W 075°12'0 0.0
2017-Jul-18 13:31N 39°54' W 075°12'0 0.0
2017-Jul-18 13:00N 39°54' W 075°12'0 0.0
2017-Jul-18 12:31N 39°54' W 075°12'0 0.0
2017-Jul-18 12:00N 39°54' W 075°12'0 0.0
2017-Jul-18 11:30N 39°54' W 075°12'0 0.0
2017-Jul-18 11:00N 39°54' W 075°12'0 0.0
2017-Jul-18 10:31N 39°54' W 075°12'0 0.0
2017-Jul-18 10:01N 39°54' W 075°12'0 0.0
2017-Jul-18 09:30N 39°54' W 075°12'0 0.0
2017-Jul-18 09:00N 39°54' W 075°12'0 0.0
2017-Jul-18 08:31N 39°54' W 075°12'0 0.0
2017-Jul-18 08:01N 39°54' W 075°12'0 0.0
2017-Jul-18 07:30N 39°54' W 075°12'0 0.0
2017-Jul-18 07:01N 39°54' W 075°12'0 0.0
2017-Jul-18 06:30N 39°54' W 075°12'0 0.0
2017-Jul-18 06:00N 39°54' W 075°12'0 0.0
2017-Jul-18 05:30N 39°54' W 075°12'0 0.0
2017-Jul-18 05:00N 39°54' W 075°12'0 0.0
2017-Jul-18 04:30N 39°54' W 075°12'0 0.0
2017-Jul-18 04:00N 39°54' W 075°12'0 0.0
2017-Jul-18 03:30N 39°54' W 075°12'0 0.0
2017-Jul-18 03:00N 39°54' W 075°12'0 0.0
2017-Jul-18 02:30N 39°54' W 075°12'0 0.0
2017-Jul-18 02:00N 39°54' W 075°12'0 0.0
2017-Jul-18 01:31N 39°54' W 075°12'0 0.0
2017-Jul-18 01:01N 39°54' W 075°12'0 0.0
2017-Jul-18 00:30N 39°54' W 075°12'0 0.0
2017-Jul-18 00:00N 39°54' W 075°12'0 0.0
2017-Jul-17 23:30N 39°54' W 075°12'0 0.2
2017-Jul-17 23:00N 39°54' W 075°12'1 2.2
2017-Jul-17 22:30N 39°55' W 075°13'0 0.0
2017-Jul-17 22:00N 39°55' W 075°13'0 0.0
2017-Jul-17 21:30N 39°55' W 075°13'0 0.0
2017-Jul-17 21:00N 39°55' W 075°13'0 0.0
2017-Jul-17 20:30N 39°55' W 075°13'1 1.0
2017-Jul-17 20:00N 39°54' W 075°13'1 1.2
2017-Jul-17 19:30N 39°54' W 075°12'0 0.0
2017-Jul-17 19:00N 39°54' W 075°12'0 0.0
2017-Jul-17 18:30N 39°54' W 075°12'0 0.0
2017-Jul-17 18:00N 39°54' W 075°12'0 0.1
2017-Jul-17 17:31N 39°54' W 075°12'0 0.0
2017-Jul-17 17:00N 39°54' W 075°12'0 0.0
2017-Jul-17 16:30N 39°54' W 075°12'0 0.0
2017-Jul-17 16:00N 39°54' W 075°12'0 0.0
2017-Jul-17 15:31N 39°54' W 075°12'0 0.0
2017-Jul-17 15:01N 39°54' W 075°12'0 0.0
2017-Jul-17 14:30N 39°54' W 075°12'0 0.0
2017-Jul-17 14:00N 39°54' W 075°12'0 0.0
2017-Jul-17 13:31N 39°54' W 075°12'0 0.0
2017-Jul-17 13:00N 39°54' W 075°12'0 0.0
2017-Jul-17 12:30N 39°54' W 075°12'0 0.0
2017-Jul-17 12:00N 39°54' W 075°12'0 0.0
2017-Jul-17 11:30N 39°54' W 075°12'0 0.0
2017-Jul-17 11:01N 39°54' W 075°12'0 0.0
2017-Jul-17 10:30N 39°54' W 075°12'0 0.0
2017-Jul-17 10:01N 39°54' W 075°12'0 0.0
2017-Jul-17 09:30N 39°54' W 075°12'0 0.0
2017-Jul-17 09:00N 39°54' W 075°12'0 0.0
2017-Jul-17 08:30N 39°54' W 075°12'0 0.0
2017-Jul-17 08:00N 39°54' W 075°12'0 0.0
2017-Jul-17 07:30N 39°54' W 075°12'  
Track history (hours):
 
Tides and Currents Weather Stations Pressure Air Temp Water Temp Dewpoint Dewpoint Depression Visibility Wind Speed Wind Dir Waves Ship Positions

Chesapeake

Owner: Vane Line Bunkering, Philadelphia, PA. More information available from US FCC via Universal Licensing System and Coast Guard Vessel Documentation Center.

Last reported at 2017-Jul-27 07:23 UTC. Time now 2017-Jul-27 14:57 UTC.
Position N 39°34' W 074°05'.

Length 34 m.

Type: Tug. MMSI: 367123040.

Date/timePositionNaut miles runAvg speedWind from/ knotsBaromVisibWave heightAir tempDewpointWater temp
2017-Jul-27 07:23N 39°34' W 074°05'410.2
2017-Jul-27 07:00N 39°38' W 074°03'510.2
2017-Jul-27 06:31N 39°42' W 073°60'510.0
2017-Jul-27 06:00N 39°47' W 073°57'510.2
2017-Jul-27 05:30N 39°52' W 073°56'3710.0
2017-Jul-27 01:45N 40°29' W 073°55'2 9.1
2017-Jul-27 01:30N 40°30' W 073°57'4 8.2
2017-Jul-27 01:00N 40°33' W 074°02'4 8.7
2017-Jul-27 00:30N 40°37' W 074°03'4 8.5
2017-Jul-27 00:01N 40°41' W 074°02'510.2
2017-Jul-26 23:30N 40°46' W 074°01'611.1
2017-Jul-26 23:00N 40°51' W 073°57'4 7.7
2017-Jul-26 22:30N 40°54' W 073°55'0 0.1
2017-Jul-26 22:00N 40°54' W 073°55'1 0.0
2017-Jul-25 05:49N 40°56' W 073°55'3 8.0
2017-Jul-25 05:30N 40°53' W 073°56'4 8.1
2017-Jul-25 05:00N 40°50' W 073°58'5 9.0
2017-Jul-25 04:30N 40°46' W 074°01'5 9.1
2017-Jul-25 04:00N 40°41' W 074°02'4 8.3
2017-Jul-25 03:30N 40°37' W 074°03'3 5.3
2017-Jul-25 03:01N 40°35' W 074°02'1 2.6
2017-Jul-25 02:30N 40°34' W 074°02'3 6.4
2017-Jul-25 02:00N 40°31' W 073°59'3 6.8
2017-Jul-25 01:29N 40°29' W 073°55'37 5.8
2017-Jul-24 19:06N 39°52' W 073°56'1 5.2
2017-Jul-24 18:59N 39°52' W 073°57'3 5.3
2017-Jul-24 18:31N 39°49' W 073°58'3 5.3
2017-Jul-24 18:00N 39°46' W 073°58'3 5.5
2017-Jul-24 17:31N 39°44' W 073°59'3 5.7
2017-Jul-24 17:01N 39°41' W 073°60'3 6.0
2017-Jul-24 16:31N 39°38' W 074°02'3 6.3
2017-Jul-24 16:01N 39°36' W 074°04'35 6.0
2017-Jul-24 10:11N 39°07' W 074°30'1 5.8
2017-Jul-24 09:59N 39°06' W 074°31'3 5.9
2017-Jul-24 09:30N 39°04' W 074°33'11 5.9
2017-Jul-24 07:35N 38°56' W 074°44'1 6.3
2017-Jul-24 07:29N 38°56' W 074°45'6 6.3
2017-Jul-24 06:34N 38°51' W 074°49'1 6.6
2017-Jul-24 06:23N 38°50' W 074°50'3 7.4
2017-Jul-24 05:56N 38°49' W 074°54'4 7.6
2017-Jul-24 05:26N 38°48' W 074°59'22 6.9
2017-Jul-24 02:16N 39°07' W 075°13'2 6.5
2017-Jul-24 01:59N 39°08' W 075°14'3 6.1
2017-Jul-24 01:30N 39°11' W 075°16'3 5.5
2017-Jul-24 01:00N 39°13' W 075°18'3 5.4
2017-Jul-24 00:30N 39°16' W 075°20'3 5.5
2017-Jul-24 00:00N 39°18' W 075°22'3 6.1
2017-Jul-23 23:30N 39°20' W 075°25'3 6.9
2017-Jul-23 23:00N 39°22' W 075°28'4 7.9
2017-Jul-23 22:30N 39°25' W 075°31'4 8.7
2017-Jul-23 22:01N 39°29' W 075°34'5 9.5
2017-Jul-23 21:30N 39°34' W 075°33'4 8.9
2017-Jul-23 21:00N 39°38' W 075°34'5 9.6
2017-Jul-23 20:30N 39°42' W 075°31'5 9.4
2017-Jul-23 20:00N 39°47' W 075°28'4 9.0
2017-Jul-23 19:30N 39°49' W 075°23'4 8.1
2017-Jul-23 19:00N 39°51' W 075°18'2 3.9
2017-Jul-23 18:30N 39°51' W 075°16'3 6.4
2017-Jul-23 18:00N 39°52' W 075°12'1 2.2
2017-Jul-23 17:29N 39°54' W 075°12'0 0.1
2017-Jul-23 16:58N 39°54' W 075°12'0 0.0
2017-Jul-23 16:28N 39°54' W 075°12'0 0.0
2017-Jul-23 15:58N 39°54' W 075°12'0 0.0
2017-Jul-23 15:28N 39°54' W 075°12'0 0.0
2017-Jul-23 14:55N 39°54' W 075°12'0 0.0
2017-Jul-23 14:28N 39°54' W 075°12'0 0.0
2017-Jul-23 13:58N 39°54' W 075°12'0 0.0
2017-Jul-23 13:28N 39°54' W 075°12'0 0.0
2017-Jul-23 12:58N 39°54' W 075°12'0 0.0
2017-Jul-23 12:28N 39°54' W 075°12'0 0.0
2017-Jul-23 11:58N 39°54' W 075°12'0 0.0
2017-Jul-23 11:28N 39°54' W 075°12'0 0.0
2017-Jul-23 10:58N 39°54' W 075°12'0 0.0
2017-Jul-23 10:28N 39°54' W 075°12'0 0.0
2017-Jul-23 09:58N 39°54' W 075°12'0 0.0
2017-Jul-23 09:28N 39°54' W 075°12'0 0.0
2017-Jul-23 08:58N 39°54' W 075°12'0 0.0
2017-Jul-23 08:28N 39°54' W 075°12'0 0.0
2017-Jul-23 07:58N 39°54' W 075°12'0 0.0
2017-Jul-23 07:28N 39°54' W 075°12'0 0.0
2017-Jul-23 06:52N 39°54' W 075°12'0 0.0
2017-Jul-23 06:28N 39°54' W 075°12'0 0.0
2017-Jul-23 05:58N 39°54' W 075°12'0 0.0
2017-Jul-23 05:28N 39°54' W 075°12'0 0.0
2017-Jul-23 04:58N 39°54' W 075°12'0 0.0
2017-Jul-23 04:28N 39°54' W 075°12'0 0.0
2017-Jul-23 03:58N 39°54' W 075°12'0 0.0
2017-Jul-23 03:25N 39°54' W 075°12'0 0.0
2017-Jul-23 02:58N 39°54' W 075°12'0 0.0
2017-Jul-23 02:25N 39°54' W 075°12'0 0.0
2017-Jul-23 01:58N 39°54' W 075°12'0 0.0
2017-Jul-23 01:28N 39°54' W 075°12'0 0.0
2017-Jul-23 00:58N 39°54' W 075°12'0 0.0
2017-Jul-23 00:28N 39°54' W 075°12'0 0.0
2017-Jul-22 23:58N 39°54' W 075°12'0 0.0
2017-Jul-22 23:25N 39°54' W 075°12'0 0.0
2017-Jul-22 22:53N 39°54' W 075°12'0 0.0
2017-Jul-22 22:30N 39°54' W 075°12'0 0.0
2017-Jul-22 22:00N 39°54' W 075°12'0 0.0
2017-Jul-22 21:30N 39°54' W 075°12'0 0.0
2017-Jul-22 21:00N 39°54' W 075°12'0 0.0
2017-Jul-22 20:30N 39°54' W 075°12'0 0.0
2017-Jul-22 19:57N 39°54' W 075°12'0 0.0
2017-Jul-22 19:30N 39°54' W 075°12'0 0.0
2017-Jul-22 19:00N 39°54' W 075°12'0 0.1
2017-Jul-22 18:30N 39°54' W 075°12'4 6.9
2017-Jul-22 17:59N 39°51' W 075°15'0 1.0
2017-Jul-22 17:29N 39°51' W 075°16'1 2.5
2017-Jul-22 17:00N 39°51' W 075°15'2 3.8
2017-Jul-22 16:28N 39°52' W 075°12'0 0.2
2017-Jul-22 16:01N 39°52' W 075°12'0 0.0
2017-Jul-22 15:28N 39°52' W 075°12'0 0.0
2017-Jul-22 14:58N 39°52' W 075°12'0 0.0
2017-Jul-22 13:58N 39°52' W 075°12'0 0.1
2017-Jul-22 13:31N 39°52' W 075°12'0 0.2
2017-Jul-22 13:01N 39°52' W 075°12'0 0.0
2017-Jul-22 12:30N 39°52' W 075°12'0 0.0
2017-Jul-22 12:01N 39°52' W 075°12'0 0.0
2017-Jul-22 11:31N 39°52' W 075°12'0 0.0
2017-Jul-22 10:58N 39°52' W 075°12'0 0.0
2017-Jul-22 10:30N 39°52' W 075°12'0 0.0
2017-Jul-22 09:58N 39°52' W 075°12'0 0.0
2017-Jul-22 09:30N 39°52' W 075°12'0 0.0
2017-Jul-22 09:01N 39°52' W 075°12'0 0.0
2017-Jul-22 08:30N 39°52' W 075°12'0 0.0
2017-Jul-22 08:01N 39°52' W 075°12'0 0.0
2017-Jul-22 07:28N 39°52' W 075°12'0 0.1
2017-Jul-22 06:58N 39°52' W 075°12'0 0.1
2017-Jul-22 06:28N 39°52' W 075°12'0 0.1
2017-Jul-22 06:01N 39°52' W 075°12'0 0.1
2017-Jul-22 05:30N 39°52' W 075°12'0 0.0
2017-Jul-22 04:58N 39°52' W 075°12'0 0.0
2017-Jul-22 04:28N 39°52' W 075°12'0 0.0
2017-Jul-22 03:58N 39°52' W 075°12'0 0.0
2017-Jul-22 03:28N 39°52' W 075°12'0 0.0
2017-Jul-22 03:00N 39°52' W 075°12'0 0.0
2017-Jul-22 02:30N 39°52' W 075°12'0 0.0
2017-Jul-22 02:00N 39°52' W 075°12'0 0.0
2017-Jul-22 01:30N 39°52' W 075°12'0 0.0
2017-Jul-22 01:00N 39°52' W 075°12'0 0.0
2017-Jul-22 00:31N 39°52' W 075°12'0 0.1
2017-Jul-21 23:58N 39°52' W 075°12'0 0.1
2017-Jul-21 23:28N 39°52' W 075°12'0 0.2
2017-Jul-21 22:58N 39°52' W 075°12'0 0.1
2017-Jul-21 22:28N 39°52' W 075°12'0 0.0
2017-Jul-21 21:58N 39°52' W 075°12'0 0.1
2017-Jul-21 21:28N 39°52' W 075°12'0 0.0
2017-Jul-21 20:58N 39°52' W 075°12'0 0.0
2017-Jul-21 20:31N 39°52' W 075°12'0 0.1
2017-Jul-21 19:58N 39°52' W 075°12'0 0.0
2017-Jul-21 19:31N 39°52' W 075°12'0 0.0
2017-Jul-21 18:58N 39°52' W 075°12'0 0.1
2017-Jul-21 18:28N 39°52' W 075°12'0 0.2
2017-Jul-21 17:58N 39°52' W 075°12'0 0.0
2017-Jul-21 17:28N 39°52' W 075°12'0 0.1
2017-Jul-21 16:55N 39°52' W 075°12'0 0.0
2017-Jul-21 16:28N 39°52' W 075°12'0 0.0
2017-Jul-21 15:58N 39°52' W 075°12'0 0.0
2017-Jul-21 15:28N 39°52' W 075°12'0 0.0
2017-Jul-21 14:58N 39°52' W 075°12'0 0.0
2017-Jul-21 14:28N 39°52' W 075°12'0 0.0
2017-Jul-21 13:58N 39°52' W 075°12'0 0.0
2017-Jul-21 13:28N 39°52' W 075°12'0 0.0
2017-Jul-21 12:58N 39°52' W 075°12'0 0.1
2017-Jul-21 12:28N 39°52' W 075°12'0 0.1
2017-Jul-21 11:58N 39°52' W 075°12'0 0.1
2017-Jul-21 11:30N 39°52' W 075°12'0 0.0
2017-Jul-21 11:01N 39°52' W 075°12'0 0.0
2017-Jul-21 10:30N 39°52' W 075°12'0 0.1
2017-Jul-21 10:00N 39°52' W 075°12'0 0.0
2017-Jul-21 09:30N 39°52' W 075°12'0 0.0
2017-Jul-21 09:00N 39°52' W 075°12'0 0.0
2017-Jul-21 08:28N 39°52' W 075°12'0 0.0
2017-Jul-21 08:00N 39°52' W 075°12'0 0.1
2017-Jul-21 07:30N 39°52' W 075°12'0 0.0
2017-Jul-21 07:00N 39°52' W 075°12'0 0.0
2017-Jul-21 06:28N 39°52' W 075°12'0 0.0
2017-Jul-21 06:01N 39°52' W 075°12'0 0.1
2017-Jul-21 05:30N 39°52' W 075°12'0 0.1
2017-Jul-21 05:00N 39°52' W 075°12'0 0.1
2017-Jul-21 04:30N 39°52' W 075°12'0 0.0
2017-Jul-21 03:58N 39°52' W 075°12'0 0.0
2017-Jul-21 03:25N 39°52' W 075°12'0 0.0
2017-Jul-21 02:58N 39°52' W 075°12'0 0.0
2017-Jul-21 02:30N 39°52' W 075°12'0 0.0
2017-Jul-21 01:58N 39°52' W 075°12'0 0.0
2017-Jul-21 01:28N 39°52' W 075°12'0 0.0
2017-Jul-21 00:58N 39°52' W 075°12'0 0.0
2017-Jul-21 00:28N 39°52' W 075°12'0 0.0
2017-Jul-21 00:01N 39°52' W 075°12'0 0.0
2017-Jul-20 23:28N 39°52' W 075°12'0 0.0
2017-Jul-20 22:58N 39°52' W 075°12'0 0.0
2017-Jul-20 22:31N 39°52' W 075°12'0 0.0
2017-Jul-20 21:58N 39°52' W 075°12'0 0.0
2017-Jul-20 21:28N 39°52' W 075°12'0 0.1
2017-Jul-20 20:58N 39°52' W 075°12'0 0.1
2017-Jul-20 20:28N 39°52' W 075°12'1 3.0
2017-Jul-20 20:00N 39°54' W 075°12'0 0.5
2017-Jul-20 19:29N 39°54' W 075°12'0 0.0
2017-Jul-20 18:59N 39°54' W 075°12'0 0.0
2017-Jul-20 18:29N 39°54' W 075°12'0 0.0
2017-Jul-20 17:59N 39°54' W 075°12'0 0.2
2017-Jul-20 17:29N 39°54' W 075°12'0 0.2
2017-Jul-20 16:58N 39°54' W 075°12'0 0.0
2017-Jul-20 16:28N 39°54' W 075°12'1 1.4
2017-Jul-20 15:58N 39°54' W 075°11'1 1.4
2017-Jul-20 15:29N 39°54' W 075°12'0 0.0
2017-Jul-20 14:59N 39°54' W 075°12'0 0.0
2017-Jul-20 13:59N 39°54' W 075°12'0 0.0
2017-Jul-20 13:26N 39°54' W 075°12'0 0.0
2017-Jul-20 12:59N 39°54' W 075°12'0 0.0
2017-Jul-20 12:29N 39°54' W 075°12'0 0.0
2017-Jul-20 11:59N 39°54' W 075°12'0 0.0
2017-Jul-20 11:26N 39°54' W 075°12'0 0.0
2017-Jul-20 10:56N 39°54' W 075°12'0 0.0
2017-Jul-20 10:29N 39°54' W 075°12'0 0.0
2017-Jul-20 09:59N 39°54' W 075°12'0 0.0
2017-Jul-20 09:29N 39°54' W 075°12'0 0.0
2017-Jul-20 08:59N 39°54' W 075°12'0 0.0
2017-Jul-20 08:29N 39°54' W 075°12'0 0.0
2017-Jul-20 07:56N 39°54' W 075°12'0 0.0
2017-Jul-20 07:29N 39°54' W 075°12'0 0.0
2017-Jul-20 06:59N 39°54' W 075°12'0 0.0
2017-Jul-20 06:29N 39°54' W 075°12'0 0.0
2017-Jul-20 05:59N 39°54' W 075°12'0 0.0
2017-Jul-20 05:29N 39°54' W 075°12'0 0.0
2017-Jul-20 04:59N 39°54' W 075°12'0 0.0
2017-Jul-20 04:29N 39°54' W 075°12'0 0.0
2017-Jul-20 03:59N 39°54' W 075°12'0 0.0
2017-Jul-20 03:29N 39°54' W 075°12'0 0.0
2017-Jul-20 02:59N 39°54' W 075°12'0 0.0
2017-Jul-20 02:29N 39°54' W 075°12'0 0.0
2017-Jul-20 01:59N 39°54' W 075°12'0 0.0
2017-Jul-20 01:30N 39°54' W 075°12'0 0.0
2017-Jul-20 01:00N 39°54' W 075°12'0 0.0
2017-Jul-20 00:30N 39°54' W 075°12'0 0.0
2017-Jul-20 00:00N 39°54' W 075°12'0 0.0
2017-Jul-19 23:31N 39°54' W 075°12'0 0.0
2017-Jul-19 23:01N 39°54' W 075°12'0 0.0
2017-Jul-19 22:31N 39°54' W 075°12'0 0.0
2017-Jul-19 22:01N 39°54' W 075°12'0 0.0
2017-Jul-19 21:31N 39°54' W 075°12'0 0.0
2017-Jul-19 21:01N 39°54' W 075°12'0 0.0
2017-Jul-19 20:30N 39°54' W 075°12'0 0.0
2017-Jul-19 20:00N 39°54' W 075°12'0 0.0
2017-Jul-19 19:31N 39°54' W 075°12'0 0.0
2017-Jul-19 19:00N 39°54' W 075°12'0 0.0
2017-Jul-19 18:31N 39°54' W 075°12'0 0.0
2017-Jul-19 18:01N 39°54' W 075°12'0 0.0
2017-Jul-19 17:31N 39°54' W 075°12'0 0.0
2017-Jul-19 17:01N 39°54' W 075°12'0 0.0
2017-Jul-19 16:30N 39°54' W 075°12'0 0.0
2017-Jul-19 16:01N 39°54' W 075°12'0 0.0
2017-Jul-19 15:30N 39°54' W 075°12'0 0.0
2017-Jul-19 15:01N 39°54' W 075°12'0 0.0
2017-Jul-19 14:31N 39°54' W 075°12'0 0.0
2017-Jul-19 14:01N 39°54' W 075°12'0 0.0
2017-Jul-19 13:31N 39°54' W 075°12'0 0.0
2017-Jul-19 13:00N 39°54' W 075°12'0 0.0
2017-Jul-19 12:30N 39°54' W 075°12'0 0.0
2017-Jul-19 12:00N 39°54' W 075°12'0 0.0
2017-Jul-19 11:31N 39°54' W 075°12'0 0.0
2017-Jul-19 11:00N 39°54' W 075°12'0 0.0
2017-Jul-19 10:31N 39°54' W 075°12'0 0.0
2017-Jul-19 10:00N 39°54' W 075°12'0 0.0
2017-Jul-19 09:30N 39°54' W 075°12'0 0.0
2017-Jul-19 09:00N 39°54' W 075°12'0 0.0
2017-Jul-19 08:30N 39°54' W 075°12'0 0.0
2017-Jul-19 08:00N 39°54' W 075°12'0 0.0
2017-Jul-19 07:30N 39°54' W 075°12'0 0.0
2017-Jul-19 07:00N 39°54' W 075°12'0 0.0
2017-Jul-19 06:30N 39°54' W 075°12'0 0.0
2017-Jul-19 06:01N 39°54' W 075°12'0 0.0
2017-Jul-19 05:31N 39°54' W 075°12'0 0.0
2017-Jul-19 05:00N 39°54' W 075°12'0 0.0
2017-Jul-19 04:30N 39°54' W 075°12'0 0.0
2017-Jul-19 04:00N 39°54' W 075°12'0 0.0
2017-Jul-19 03:30N 39°54' W 075°12'0 0.0
2017-Jul-19 03:00N 39°54' W 075°12'0 0.0
2017-Jul-19 02:30N 39°54' W 075°12'0 0.0
2017-Jul-19 02:00N 39°54' W 075°12'0 0.0
2017-Jul-19 01:31N 39°54' W 075°12'0 0.0
2017-Jul-19 01:00N 39°54' W 075°12'0 0.0
2017-Jul-19 00:30N 39°54' W 075°12'0 0.0
2017-Jul-19 00:01N 39°54' W 075°12'0 0.0
2017-Jul-18 23:31N 39°54' W 075°12'0 0.0
2017-Jul-18 23:01N 39°54' W 075°12'0 0.0
2017-Jul-18 22:31N 39°54' W 075°12'0 0.0
2017-Jul-18 22:01N 39°54' W 075°12'0 0.0
2017-Jul-18 21:31N 39°54' W 075°12'0 0.0
2017-Jul-18 21:01N 39°54' W 075°12'0 0.0
2017-Jul-18 20:31N 39°54' W 075°12'0 0.0
2017-Jul-18 20:00N 39°54' W 075°12'0 0.0
2017-Jul-18 19:30N 39°54' W 075°12'3 6.5
2017-Jul-18 19:00N 39°51' W 075°15'1 1.7
2017-Jul-18 18:30N 39°52' W 075°14'2 4.9
2017-Jul-18 18:01N 39°54' W 075°12'0 0.0
2017-Jul-18 17:30N 39°54' W 075°12'0 0.0
2017-Jul-18 17:00N 39°54' W 075°12'0 0.0
2017-Jul-18 16:31N 39°54' W 075°12'0 0.0
2017-Jul-18 16:00N 39°54' W 075°12'0 0.0
2017-Jul-18 15:30N 39°54' W 075°12'0 0.0
2017-Jul-18 15:00N 39°54' W 075°12'0 0.0
2017-Jul-18 14:01N 39°54' W 075°12'0 0.0
2017-Jul-18 13:31N 39°54' W 075°12'0 0.0
2017-Jul-18 13:00N 39°54' W 075°12'0 0.0
2017-Jul-18 12:31N 39°54' W 075°12'0 0.0
2017-Jul-18 12:00N 39°54' W 075°12'0 0.0
2017-Jul-18 11:30N 39°54' W 075°12'0 0.0
2017-Jul-18 11:00N 39°54' W 075°12'0 0.0
2017-Jul-18 10:31N 39°54' W 075°12'0 0.0
2017-Jul-18 10:01N 39°54' W 075°12'0 0.0
2017-Jul-18 09:30N 39°54' W 075°12'0 0.0
2017-Jul-18 09:00N 39°54' W 075°12'0 0.0
2017-Jul-18 08:31N 39°54' W 075°12'0 0.0
2017-Jul-18 08:01N 39°54' W 075°12'0 0.0
2017-Jul-18 07:30N 39°54' W 075°12'0 0.0
2017-Jul-18 07:01N 39°54' W 075°12'0 0.0
2017-Jul-18 06:30N 39°54' W 075°12'0 0.0
2017-Jul-18 06:00N 39°54' W 075°12'0 0.0
2017-Jul-18 05:30N 39°54' W 075°12'0 0.0
2017-Jul-18 05:00N 39°54' W 075°12'0 0.0
2017-Jul-18 04:30N 39°54' W 075°12'0 0.0
2017-Jul-18 04:00N 39°54' W 075°12'0 0.0
2017-Jul-18 03:30N 39°54' W 075°12'0 0.0
2017-Jul-18 03:00N 39°54' W 075°12'0 0.0
2017-Jul-18 02:30N 39°54' W 075°12'0 0.0
2017-Jul-18 02:00N 39°54' W 075°12'0 0.0
2017-Jul-18 01:31N 39°54' W 075°12'0 0.0
2017-Jul-18 01:01N 39°54' W 075°12'0 0.0
2017-Jul-18 00:30N 39°54' W 075°12'0 0.0
2017-Jul-18 00:00N 39°54' W 075°12'0 0.0
2017-Jul-17 23:30N 39°54' W 075°12'0 0.2
2017-Jul-17 23:00N 39°54' W 075°12'1 2.2
2017-Jul-17 22:30N 39°55' W 075°13'0 0.0
2017-Jul-17 22:00N 39°55' W 075°13'0 0.0
2017-Jul-17 21:30N 39°55' W 075°13'0 0.0
2017-Jul-17 21:00N 39°55' W 075°13'0 0.0
2017-Jul-17 20:30N 39°55' W 075°13'1 1.0
2017-Jul-17 20:00N 39°54' W 075°13'1 1.2
2017-Jul-17 19:30N 39°54' W 075°12'0 0.0
2017-Jul-17 19:00N 39°54' W 075°12'0 0.0
2017-Jul-17 18:30N 39°54' W 075°12'0 0.0
2017-Jul-17 18:00N 39°54' W 075°12'0 0.1
2017-Jul-17 17:31N 39°54' W 075°12'0 0.0
2017-Jul-17 17:00N 39°54' W 075°12'0 0.0
2017-Jul-17 16:30N 39°54' W 075°12'0 0.0
2017-Jul-17 16:00N 39°54' W 075°12'0 0.0
2017-Jul-17 15:31N 39°54' W 075°12'0 0.0
2017-Jul-17 15:01N 39°54' W 075°12'0 0.0
2017-Jul-17 14:30N 39°54' W 075°12'0 0.0
2017-Jul-17 14:00N 39°54' W 075°12'0 0.0
2017-Jul-17 13:31N 39°54' W 075°12'0 0.0
2017-Jul-17 13:00N 39°54' W 075°12'0 0.0
2017-Jul-17 12:30N 39°54' W 075°12'0 0.0
2017-Jul-17 12:00N 39°54' W 075°12'0 0.0
2017-Jul-17 11:30N 39°54' W 075°12'0 0.0
2017-Jul-17 11:01N 39°54' W 075°12'0 0.0
2017-Jul-17 10:30N 39°54' W 075°12'0 0.0
2017-Jul-17 10:01N 39°54' W 075°12'0 0.0
2017-Jul-17 09:30N 39°54' W 075°12'0 0.0
2017-Jul-17 09:00N 39°54' W 075°12'0 0.0
2017-Jul-17 08:30N 39°54' W 075°12'0 0.0
2017-Jul-17 08:00N 39°54' W 075°12'0 0.0
2017-Jul-17 07:30N 39°54' W 075°12'  

Dump ship's entire track history